Time;durP1;ratioP1;P1;durP2;ratioP2;P2;SDS_P1;SDS_P2;PMS_P1;PMS_P2;Temp;Humidity;BMP_temperature;BMP_pressure;BME280_temperature;BME280_humidity;BME280_pressure;Samples;Min_cycle;Max_cycle;Signal;HPM_P1;HPM_P2
2021/10/17 00:00:18;;;;;;;27.87;23.00;;;6.80;99.90;;;;;;4992802;28;20435;-66
2021/10/17 00:02:47;;;;;;;30.10;23.57;;;6.80;99.90;;;;;;4991954;28;20474;-66
2021/10/17 00:05:13;;;;;;;29.47;23.73;;;6.90;99.90;;;;;;4992537;28;20458;-67
2021/10/17 00:07:39;;;;;;;31.07;23.40;;;6.90;99.90;;;;;;4992404;28;20419;-67
2021/10/17 00:10:07;;;;;;;29.10;22.90;;;6.90;99.90;;;;;;4992401;28;20947;-66
2021/10/17 00:12:34;;;;;;;27.93;22.10;;;6.90;99.90;;;;;;4992510;28;20489;-66
2021/10/17 00:15:00;;;;;;;26.60;22.27;;;6.90;99.90;;;;;;4992248;28;20439;-66
2021/10/17 00:17:26;;;;;;;27.53;22.30;;;6.90;99.90;;;;;;4987559;28;20431;-66
2021/10/17 00:19:51;;;;;;;28.10;21.30;;;7.00;99.90;;;;;;4984175;28;20485;-66
2021/10/17 00:22:17;;;;;;;26.17;20.70;;;7.00;99.90;;;;;;4992352;28;20781;-66
2021/10/17 00:24:43;;;;;;;27.27;22.23;;;7.00;99.90;;;;;;4992136;28;20199;-66
2021/10/17 00:27:09;;;;;;;29.17;21.20;;;6.90;99.90;;;;;;4992154;28;20966;-66
2021/10/17 00:29:34;;;;;;;26.83;20.60;;;7.00;99.90;;;;;;4991426;28;20171;-67
2021/10/17 00:32:00;;;;;;;26.10;23.23;;;7.00;99.90;;;;;;4991898;28;20319;-65
2021/10/17 00:34:26;;;;;;;29.17;21.80;;;7.10;99.90;;;;;;4992226;28;20194;-65
2021/10/17 00:36:52;;;;;;;25.00;21.40;;;7.00;99.90;;;;;;4992137;28;20936;-66
2021/10/17 00:39:18;;;;;;;24.67;20.90;;;7.00;99.90;;;;;;4991896;28;20438;-66
2021/10/17 00:41:45;;;;;;;26.87;22.90;;;7.00;99.90;;;;;;4992296;28;20186;-67
2021/10/17 00:44:19;;;;;;;25.53;21.23;;;7.00;99.90;;;;;;4992140;28;20603;-65
2021/10/17 00:46:45;;;;;;;31.13;22.97;;;7.00;99.90;;;;;;4991974;28;20520;-66
2021/10/17 00:49:10;;;;;;;26.67;20.27;;;7.10;99.90;;;;;;4991750;28;20443;-66
2021/10/17 00:51:36;;;;;;;26.70;23.80;;;7.10;99.90;;;;;;4992060;28;20694;-66
2021/10/17 00:54:02;;;;;;;25.50;21.80;;;7.20;99.90;;;;;;4992129;28;20195;-66
2021/10/17 00:56:27;;;;;;;28.23;21.30;;;7.30;99.90;;;;;;4994448;28;20194;-66
2021/10/17 00:58:53;;;;;;;25.93;23.17;;;7.30;99.90;;;;;;4995625;28;20439;-67
2021/10/17 01:01:18;;;;;;;28.20;22.30;;;7.30;99.90;;;;;;4996079;28;20176;-65
2021/10/17 01:03:44;;;;;;;28.23;24.20;;;7.30;99.90;;;;;;4995595;28;20254;-66
2021/10/17 01:06:12;;;;;;;28.03;22.77;;;7.30;99.90;;;;;;4995395;28;20192;-66
2021/10/17 01:08:38;;;;;;;26.33;21.73;;;7.30;99.90;;;;;;4995437;28;20249;-67
2021/10/17 01:11:04;;;;;;;36.77;24.63;;;7.40;99.90;;;;;;4995402;28;20496;-67
2021/10/17 01:13:30;;;;;;;33.27;24.67;;;7.40;99.90;;;;;;4995554;28;20477;-66
2021/10/17 01:15:57;;;;;;;32.47;23.50;;;7.50;99.90;;;;;;4995294;28;20175;-66
2021/10/17 01:18:24;;;;;;;25.70;20.07;;;7.50;99.90;;;;;;4990181;28;20474;-66
2021/10/17 01:20:50;;;;;;;27.47;22.37;;;7.40;99.90;;;;;;4983619;28;20537;-66
2021/10/17 01:23:18;;;;;;;25.70;21.00;;;7.30;99.90;;;;;;4995257;28;20492;-66
2021/10/17 01:25:44;;;;;;;25.57;20.47;;;7.20;99.90;;;;;;4995336;28;20472;-66
2021/10/17 01:28:10;;;;;;;29.23;21.57;;;7.20;99.90;;;;;;4977761;28;20438;-66
2021/10/17 01:30:35;;;;;;;25.37;22.57;;;7.10;99.90;;;;;;4995199;28;20473;-66
2021/10/17 01:33:02;;;;;;;30.10;23.40;;;7.10;99.90;;;;;;4994854;28;20207;-66
2021/10/17 01:35:27;;;;;;;32.03;24.00;;;7.10;99.90;;;;;;4993765;28;20262;-68
2021/10/17 01:37:53;;;;;;;29.23;23.20;;;7.10;99.90;;;;;;4994252;28;20459;-68
2021/10/17 01:40:19;;;;;;;32.20;26.03;;;7.00;99.90;;;;;;4993455;28;20187;-68
2021/10/17 01:42:45;;;;;;;36.00;26.50;;;7.00;99.90;;;;;;4993661;28;20175;-65
2021/10/17 01:45:11;;;;;;;31.93;26.63;;;7.00;99.90;;;;;;4994255;28;20194;-68
2021/10/17 01:47:43;;;;;;;30.40;25.23;;;7.00;99.90;;;;;;4994163;28;20434;-67
2021/10/17 01:50:09;;;;;;;32.90;25.90;;;6.90;99.90;;;;;;4994128;28;20446;-68
2021/10/17 01:52:34;;;;;;;34.30;27.73;;;6.90;99.90;;;;;;4986086;28;20443;-67
2021/10/17 01:55:00;;;;;;;35.23;27.43;;;6.90;99.90;;;;;;4994478;28;20175;-67
2021/10/17 01:57:25;;;;;;;33.70;24.53;;;6.90;99.90;;;;;;4993993;28;20554;-67
2021/10/17 01:59:51;;;;;;;29.20;25.97;;;7.00;99.90;;;;;;4994412;28;20194;-68
2021/10/17 02:02:16;;;;;;;30.77;25.10;;;7.00;99.90;;;;;;4994262;28;20183;-67
2021/10/17 02:04:42;;;;;;;32.53;26.70;;;7.10;99.90;;;;;;4994280;28;20601;-68
2021/10/17 02:07:07;;;;;;;30.37;25.40;;;7.10;99.90;;;;;;4992957;28;20183;-68
2021/10/17 02:09:33;;;;;;;29.40;22.90;;;7.10;99.90;;;;;;4993643;28;20184;-68
2021/10/17 02:11:58;;;;;;;31.20;24.70;;;7.10;99.90;;;;;;4993787;28;20247;-68
2021/10/17 02:14:24;;;;;;;28.90;24.33;;;7.20;99.90;;;;;;4994150;28;20199;-67
2021/10/17 02:16:50;;;;;;;27.70;24.23;;;7.30;99.90;;;;;;4994785;28;20172;-68
2021/10/17 02:19:16;;;;;;;29.50;25.07;;;7.30;99.90;;;;;;4994015;28;20260;-67
2021/10/17 02:21:41;;;;;;;32.00;25.43;;;7.30;99.90;;;;;;4994537;28;20477;-68
2021/10/17 02:24:10;;;;;;;31.63;25.57;;;7.30;99.90;;;;;;4994120;28;20227;-68
2021/10/17 02:26:39;;;;;;;28.80;24.10;;;7.30;99.90;;;;;;4994149;28;20180;-68
2021/10/17 02:29:06;;;;;;;26.30;23.50;;;7.30;99.90;;;;;;4993624;28;20439;-68
2021/10/17 02:31:31;;;;;;;26.57;23.07;;;7.30;99.90;;;;;;4993935;28;20489;-68
2021/10/17 02:33:57;;;;;;;24.70;22.07;;;7.40;99.90;;;;;;4993283;28;20454;-68
2021/10/17 02:36:22;;;;;;;25.30;22.63;;;7.40;99.90;;;;;;4993575;28;20207;-67
2021/10/17 02:38:48;;;;;;;26.57;23.73;;;7.50;99.90;;;;;;4993483;28;20179;-67
2021/10/17 02:41:13;;;;;;;29.70;22.10;;;7.60;99.90;;;;;;4994110;28;20274;-68
2021/10/17 02:43:39;;;;;;;29.20;23.70;;;7.60;99.90;;;;;;4993447;28;20249;-68
2021/10/17 02:46:04;;;;;;;23.70;21.20;;;7.60;99.90;;;;;;4993568;28;20179;-68
2021/10/17 02:48:30;;;;;;;24.33;21.60;;;7.60;99.90;;;;;;4993327;28;20234;-68
2021/10/17 02:50:55;;;;;;;26.57;22.77;;;7.60;99.90;;;;;;4993605;28;20630;-68
2021/10/17 02:53:21;;;;;;;23.03;20.63;;;7.60;99.90;;;;;;4993270;28;20207;-68
2021/10/17 02:55:46;;;;;;;25.77;22.97;;;7.70;99.90;;;;;;4993667;28;20183;-68
2021/10/17 02:58:12;;;;;;;22.97;20.57;;;7.70;99.90;;;;;;4993166;28;20183;-68
2021/10/17 03:00:38;;;;;;;25.83;20.93;;;7.70;99.90;;;;;;4993014;28;20179;-68
2021/10/17 03:03:04;;;;;;;25.10;21.93;;;7.70;99.90;;;;;;4993462;28;20203;-67
2021/10/17 03:05:30;;;;;;;24.23;21.17;;;7.70;99.90;;;;;;4993186;28;20186;-67
2021/10/17 03:07:55;;;;;;;28.00;21.87;;;7.70;99.90;;;;;;4992900;28;20538;-67
2021/10/17 03:10:22;;;;;;;22.90;20.70;;;7.60;99.90;;;;;;4993234;28;20445;-68
2021/10/17 03:12:49;;;;;;;24.27;21.30;;;7.60;99.90;;;;;;4992947;28;20193;-67
2021/10/17 03:15:14;;;;;;;24.27;21.70;;;7.60;99.90;;;;;;4993444;28;20474;-68
2021/10/17 03:17:40;;;;;;;27.40;22.80;;;7.50;99.90;;;;;;4992106;28;20438;-68
2021/10/17 03:20:06;;;;;;;24.87;22.17;;;7.60;99.90;;;;;;4992596;28;20534;-67
2021/10/17 03:22:31;;;;;;;25.40;22.20;;;7.60;99.90;;;;;;4993119;28;20330;-68
2021/10/17 03:24:57;;;;;;;26.33;23.53;;;7.70;99.90;;;;;;4993049;28;20518;-68
2021/10/17 03:27:22;;;;;;;24.57;21.53;;;7.70;99.90;;;;;;4992524;28;20259;-68
2021/10/17 03:29:48;;;;;;;26.73;23.10;;;7.70;99.90;;;;;;4986245;28;20554;-67
2021/10/17 03:32:13;;;;;;;29.23;22.10;;;7.80;99.90;;;;;;4992302;28;20662;-67
2021/10/17 03:34:39;;;;;;;26.07;23.00;;;7.70;99.90;;;;;;4992574;28;20196;-68
2021/10/17 03:37:04;;;;;;;27.60;22.77;;;7.60;99.90;;;;;;4992573;28;20182;-67
2021/10/17 03:39:30;;;;;;;26.03;23.30;;;7.50;99.90;;;;;;4992219;28;20168;-68
2021/10/17 03:41:55;;;;;;;28.43;22.67;;;7.50;99.90;;;;;;4992232;28;20201;-67
2021/10/17 03:44:21;;;;;;;28.47;22.90;;;7.50;99.90;;;;;;4992987;28;20657;-68
2021/10/17 03:46:46;;;;;;;25.70;22.17;;;7.40;99.90;;;;;;4988086;28;20195;-68
2021/10/17 03:49:12;;;;;;;25.63;22.90;;;7.50;99.90;;;;;;4984487;28;20183;-68
2021/10/17 03:51:37;;;;;;;26.77;23.77;;;7.50;99.90;;;;;;4992344;28;20206;-68
2021/10/17 03:54:03;;;;;;;27.20;22.70;;;7.40;99.90;;;;;;4992092;28;20230;-67
2021/10/17 03:56:28;;;;;;;26.03;22.23;;;7.40;99.90;;;;;;4992418;28;20226;-67
2021/10/17 03:58:54;;;;;;;26.43;22.00;;;7.40;99.90;;;;;;4992252;28;20275;-67
2021/10/17 04:01:19;;;;;;;28.17;24.13;;;7.40;99.90;;;;;;4992439;28;20274;-67
2021/10/17 04:03:45;;;;;;;25.67;21.97;;;7.40;99.90;;;;;;4993170;28;20634;-67
2021/10/17 04:06:10;;;;;;;27.17;22.90;;;7.40;99.90;;;;;;4992288;28;20568;-67
2021/10/17 04:08:36;;;;;;;24.60;22.10;;;7.40;99.90;;;;;;4992102;28;20186;-68
2021/10/17 04:11:02;;;;;;;24.60;22.00;;;7.40;99.90;;;;;;4992008;28;20203;-67
2021/10/17 04:13:27;;;;;;;30.23;24.17;;;7.50;99.90;;;;;;4991978;28;20195;-68
2021/10/17 04:15:53;;;;;;;25.53;22.23;;;7.50;99.90;;;;;;4992561;28;20183;-67
2021/10/17 04:18:19;;;;;;;29.97;20.77;;;7.60;99.90;;;;;;4992147;28;20194;-68
2021/10/17 04:20:44;;;;;;;26.23;23.10;;;7.60;99.90;;;;;;4992531;28;20179;-68
2021/10/17 04:23:09;;;;;;;23.50;21.07;;;7.60;99.90;;;;;;4992230;28;20203;-68
2021/10/17 04:25:35;;;;;;;26.50;23.33;;;7.60;99.90;;;;;;4992231;28;20548;-68
2021/10/17 04:28:01;;;;;;;25.07;22.07;;;7.50;99.90;;;;;;4991686;28;20195;-67
2021/10/17 04:30:26;;;;;;;24.73;21.87;;;7.50;99.90;;;;;;4993102;28;20537;-68
2021/10/17 04:32:52;;;;;;;23.30;20.90;;;7.40;99.90;;;;;;4996112;28;20203;-68
2021/10/17 04:35:17;;;;;;;27.60;20.60;;;7.40;99.90;;;;;;4996517;28;20183;-67
2021/10/17 04:37:43;;;;;;;23.33;20.77;;;7.40;99.90;;;;;;4995434;28;20209;-68
2021/10/17 04:40:10;;;;;;;23.70;21.10;;;7.40;99.90;;;;;;4995604;28;20584;-68
2021/10/17 04:42:36;;;;;;;25.93;23.20;;;7.30;99.90;;;;;;4995667;28;20218;-67
2021/10/17 04:45:06;;;;;;;22.23;19.93;;;7.30;99.90;;;;;;4992726;28;20438;-67
2021/10/17 04:47:31;;;;;;;24.33;21.70;;;7.30;99.90;;;;;;4995500;28;20983;-68
2021/10/17 04:49:57;;;;;;;22.97;20.77;;;7.30;99.90;;;;;;4995569;28;20526;-67
2021/10/17 04:52:23;;;;;;;23.37;19.90;;;7.40;99.90;;;;;;4996005;28;20621;-68
2021/10/17 04:54:48;;;;;;;24.63;20.80;;;7.40;99.90;;;;;;4995482;28;20203;-67
2021/10/17 04:57:14;;;;;;;24.00;21.33;;;7.30;99.90;;;;;;4995401;28;20618;-68
2021/10/17 04:59:39;;;;;;;21.90;19.37;;;7.30;99.90;;;;;;4995664;28;20179;-68
2021/10/17 05:02:07;;;;;;;22.63;20.27;;;7.30;99.90;;;;;;4995477;28;20207;-67
2021/10/17 05:04:38;;;;;;;22.20;20.00;;;7.30;99.90;;;;;;4995559;28;20673;-67
2021/10/17 05:07:04;;;;;;;23.80;21.20;;;7.30;99.90;;;;;;4995667;28;20492;-68
2021/10/17 05:09:30;;;;;;;22.13;19.67;;;7.30;99.90;;;;;;4995122;28;20470;-67
2021/10/17 05:11:55;;;;;;;22.20;19.83;;;7.30;99.90;;;;;;4995328;28;20568;-68
2021/10/17 05:14:21;;;;;;;24.90;22.17;;;7.30;99.90;;;;;;4995524;28;20279;-67
2021/10/17 05:16:47;;;;;;;24.10;20.07;;;7.20;99.90;;;;;;4995396;28;20548;-68
2021/10/17 05:19:13;;;;;;;22.67;20.27;;;7.20;99.90;;;;;;4995170;28;20182;-67
2021/10/17 05:21:38;;;;;;;20.30;18.10;;;7.20;99.90;;;;;;4994992;28;20442;-67
2021/10/17 05:24:04;;;;;;;24.73;20.70;;;7.10;99.90;;;;;;4990240;28;20218;-68
2021/10/17 05:26:30;;;;;;;21.00;18.77;;;7.10;99.90;;;;;;4991657;28;20188;-68
2021/10/17 05:28:55;;;;;;;22.33;20.10;;;7.00;99.90;;;;;;4994782;28;20172;-68
2021/10/17 05:31:21;;;;;;;24.23;18.97;;;7.00;99.90;;;;;;4994988;28;20210;-67
2021/10/17 05:33:46;;;;;;;21.60;19.63;;;7.00;99.90;;;;;;4994730;28;20615;-67
2021/10/17 05:36:12;;;;;;;20.60;18.17;;;7.00;99.90;;;;;;4995012;28;20172;-67
2021/10/17 05:38:39;;;;;;;24.97;22.37;;;6.90;99.90;;;;;;4994864;28;20179;-67
2021/10/17 05:41:05;;;;;;;26.03;20.13;;;6.80;99.90;;;;;;4994845;28;20590;-67
2021/10/17 05:43:30;;;;;;;23.83;20.93;;;6.80;99.90;;;;;;4995142;28;20454;-67
2021/10/17 05:45:56;;;;;;;24.33;21.20;;;6.80;99.90;;;;;;4994331;28;20183;-67
2021/10/17 05:48:22;;;;;;;22.93;20.53;;;6.70;99.90;;;;;;4994604;28;20176;-67
2021/10/17 05:50:47;;;;;;;25.70;21.10;;;6.70;99.90;;;;;;4994758;28;20677;-67
2021/10/17 05:53:13;;;;;;;22.63;20.27;;;6.70;99.90;;;;;;4994512;28;20195;-68
2021/10/17 05:55:39;;;;;;;22.67;20.27;;;6.70;99.90;;;;;;4994409;28;20179;-67
2021/10/17 05:58:04;;;;;;;21.23;18.93;;;6.60;99.90;;;;;;4994323;28;20172;-67
2021/10/17 06:00:30;;;;;;;21.63;19.30;;;6.60;99.90;;;;;;4994411;28;20454;-67
2021/10/17 06:02:56;;;;;;;24.20;17.73;;;6.60;99.90;;;;;;4994584;28;20286;-68
2021/10/17 06:05:22;;;;;;;22.23;19.20;;;6.60;99.90;;;;;;4994395;28;20172;-67
2021/10/17 06:07:48;;;;;;;20.97;18.80;;;6.70;99.90;;;;;;4993662;28;20454;-68
2021/10/17 06:10:14;;;;;;;23.17;19.80;;;6.70;99.90;;;;;;4983602;28;20183;-68
2021/10/17 06:12:40;;;;;;;25.33;19.23;;;6.70;99.90;;;;;;4994225;28;20218;-68
2021/10/17 06:15:07;;;;;;;25.27;20.97;;;6.70;99.90;;;;;;4994468;28;20446;-68
2021/10/17 06:17:34;;;;;;;24.00;20.47;;;6.80;99.90;;;;;;4994316;28;20458;-68
2021/10/17 06:20:00;;;;;;;23.10;20.50;;;7.00;99.90;;;;;;4994200;28;20970;-68
2021/10/17 06:22:26;;;;;;;19.83;17.60;;;7.10;99.90;;;;;;4994137;28;20470;-68
2021/10/17 06:24:52;;;;;;;21.57;19.27;;;7.20;99.90;;;;;;4994091;28;20541;-68
2021/10/17 06:27:17;;;;;;;22.40;19.00;;;7.30;99.90;;;;;;4993897;28;20914;-68
2021/10/17 06:29:43;;;;;;;20.33;18.17;;;7.40;99.90;;;;;;4993822;28;20564;-68
2021/10/17 06:32:09;;;;;;;19.50;17.50;;;7.50;99.90;;;;;;4993886;28;20289;-68
2021/10/17 06:34:34;;;;;;;18.70;16.77;;;7.50;99.90;;;;;;4993827;28;20199;-68
2021/10/17 06:37:00;;;;;;;21.47;19.23;;;7.50;99.90;;;;;;4993512;28;20312;-68
2021/10/17 06:39:26;;;;;;;23.50;21.03;;;7.60;99.90;;;;;;4993932;28;20179;-68
2021/10/17 06:41:51;;;;;;;24.53;21.97;;;7.60;99.90;;;;;;4993692;28;20521;-68
2021/10/17 06:44:20;;;;;;;23.07;20.93;;;7.60;99.90;;;;;;4993568;28;20688;-68
2021/10/17 06:46:47;;;;;;;24.87;22.50;;;7.70;99.90;;;;;;4993510;28;20544;-68
2021/10/17 06:49:12;;;;;;;24.10;21.73;;;7.80;99.90;;;;;;4993346;28;20433;-68
2021/10/17 06:51:38;;;;;;;22.33;20.27;;;8.00;99.90;;;;;;4993429;28;20463;-68
2021/10/17 06:54:03;;;;;;;27.77;22.57;;;8.10;99.90;;;;;;4992867;28;20223;-68
2021/10/17 06:56:29;;;;;;;24.30;21.70;;;8.10;99.90;;;;;;4993275;28;20551;-68
2021/10/17 06:58:55;;;;;;;23.80;20.53;;;8.20;99.90;;;;;;4993461;28;20226;-68
2021/10/17 07:01:20;;;;;;;25.33;22.83;;;8.30;99.90;;;;;;4993263;28;20258;-68
2021/10/17 07:03:46;;;;;;;24.33;21.93;;;8.60;99.90;;;;;;4993025;28;20218;-68
2021/10/17 07:06:12;;;;;;;22.47;20.40;;;8.80;99.90;;;;;;4992874;28;20187;-68
2021/10/17 07:08:38;;;;;;;22.37;19.93;;;9.00;99.90;;;;;;4992952;28;20183;-68
2021/10/17 07:11:03;;;;;;;22.70;20.30;;;9.20;99.90;;;;;;4993203;28;20459;-68
2021/10/17 07:13:29;;;;;;;22.80;20.50;;;9.40;99.90;;;;;;4993407;28;20203;-68
2021/10/17 07:15:55;;;;;;;24.77;22.23;;;9.60;99.90;;;;;;4993003;28;20187;-68
2021/10/17 07:18:21;;;;;;;22.40;19.60;;;9.70;99.90;;;;;;4992865;28;20318;-68
2021/10/17 07:20:46;;;;;;;21.20;19.17;;;10.10;99.90;;;;;;4992913;28;20201;-68
2021/10/17 07:23:12;;;;;;;23.53;19.30;;;10.20;99.90;;;;;;4992885;28;20654;-68
2021/10/17 07:25:37;;;;;;;22.70;20.50;;;10.40;99.90;;;;;;4992506;28;20175;-68
2021/10/17 07:28:03;;;;;;;22.97;20.60;;;10.50;99.90;;;;;;4992449;28;20649;-68
2021/10/17 07:30:28;;;;;;;19.47;17.47;;;10.70;99.90;;;;;;4992725;28;20184;-68
2021/10/17 07:32:54;;;;;;;18.50;16.70;;;10.80;99.90;;;;;;4993027;28;20278;-68
2021/10/17 07:35:20;;;;;;;18.60;16.73;;;11.00;99.90;;;;;;4991110;28;20555;-68
2021/10/17 07:37:45;;;;;;;18.60;16.77;;;11.20;99.90;;;;;;4992282;28;20183;-68
2021/10/17 07:40:11;;;;;;;20.70;18.90;;;11.50;99.90;;;;;;4992652;28;20187;-68
2021/10/17 07:42:37;;;;;;;18.30;16.57;;;11.60;99.90;;;;;;4992730;28;20278;-68
2021/10/17 07:45:03;;;;;;;18.90;16.57;;;11.80;99.90;;;;;;4992890;28;20449;-68
2021/10/17 07:47:33;;;;;;;18.27;16.57;;;12.00;99.90;;;;;;4992425;28;20498;-68
2021/10/17 07:49:59;;;;;;;22.20;18.93;;;12.20;99.90;;;;;;4992175;28;20442;-68
2021/10/17 07:52:24;;;;;;;20.77;18.57;;;12.50;99.90;;;;;;4992221;28;20481;-68
2021/10/17 07:54:50;;;;;;;19.30;17.40;;;12.50;99.90;;;;;;4992307;28;20462;-68
2021/10/17 07:57:15;;;;;;;21.23;19.20;;;12.90;99.90;;;;;;4992352;28;20187;-68
2021/10/17 07:59:41;;;;;;;22.63;19.43;;;13.20;99.90;;;;;;4992177;28;20190;-68
2021/10/17 08:02:06;;;;;;;19.13;17.10;;;13.30;99.90;;;;;;4991920;28;20184;-68
2021/10/17 08:04:32;;;;;;;20.17;18.27;;;13.70;99.90;;;;;;4991553;28;20211;-68
2021/10/17 08:06:58;;;;;;;20.17;18.17;;;14.20;99.90;;;;;;4991887;28;20196;-68
2021/10/17 08:09:24;;;;;;;18.40;16.60;;;14.50;99.90;;;;;;4991753;28;20190;-68
2021/10/17 08:11:49;;;;;;;20.03;18.17;;;14.80;99.90;;;;;;4991830;28;20828;-68
2021/10/17 08:14:15;;;;;;;18.30;16.60;;;14.40;99.90;;;;;;4992039;28;20203;-68
2021/10/17 08:16:40;;;;;;;18.33;16.63;;;14.70;99.90;;;;;;4992088;28;20206;-68
2021/10/17 08:19:06;;;;;;;18.73;17.13;;;15.30;99.90;;;;;;4991899;28;20724;-68
2021/10/17 08:21:31;;;;;;;18.10;16.20;;;15.50;99.90;;;;;;4992208;28;20191;-69
2021/10/17 08:23:58;;;;;;;18.87;16.87;;;16.30;99.90;;;;;;4991653;28;20204;-69
2021/10/17 08:26:23;;;;;;;20.23;18.53;;;17.20;99.90;;;;;;4991902;28;20184;-69
2021/10/17 08:28:49;;;;;;;19.47;17.70;;;17.70;99.90;;;;;;4991709;28;20438;-69
2021/10/17 08:31:15;;;;;;;18.07;16.40;;;18.10;99.90;;;;;;4991438;28;20282;-69
2021/10/17 08:33:41;;;;;;;19.60;17.90;;;18.30;99.90;;;;;;4991235;28;20282;-69
2021/10/17 08:36:06;;;;;;;17.77;16.23;;;18.20;99.90;;;;;;4990621;28;20630;-69
2021/10/17 08:38:34;;;;;;;18.83;17.13;;;18.60;99.90;;;;;;4991599;28;20188;-69
2021/10/17 08:41:00;;;;;;;18.53;16.83;;;19.30;99.90;;;;;;4991136;28;20641;-69
2021/10/17 08:43:26;;;;;;;20.53;18.73;;;19.50;99.90;;;;;;4992008;28;20468;-69
2021/10/17 08:45:51;;;;;;;19.20;17.60;;;19.90;99.90;;;;;;4991656;28;20508;-69
2021/10/17 08:48:17;;;;;;;18.77;17.17;;;20.10;99.90;;;;;;4991021;28;20438;-69
2021/10/17 08:50:44;;;;;;;18.10;16.60;;;20.60;98.80;;;;;;4991794;28;20692;-69
2021/10/17 08:53:09;;;;;;;20.10;18.23;;;20.80;97.50;;;;;;4991596;28;20245;-69
2021/10/17 08:55:35;;;;;;;19.53;17.80;;;21.80;96.10;;;;;;4991802;28;20936;-69
2021/10/17 08:58:01;;;;;;;20.30;18.60;;;22.40;94.20;;;;;;4991449;28;20206;-69
2021/10/17 09:00:31;;;;;;;19.97;18.20;;;22.50;93.10;;;;;;4991725;28;20547;-69
2021/10/17 09:02:58;;;;;;;18.97;17.40;;;22.50;92.50;;;;;;4990934;28;20262;-69
2021/10/17 09:05:45;;;;;;;18.20;16.70;;;22.40;92.00;;;;;;4992028;28;20465;-69
2021/10/17 09:08:15;;;;;;;17.33;15.83;;;23.20;90.70;;;;;;4991750;28;20439;-69
2021/10/17 09:10:41;;;;;;;19.50;17.83;;;23.90;87.50;;;;;;4991561;28;20447;-69
2021/10/17 09:13:14;;;;;;;18.50;17.10;;;24.40;83.80;;;;;;4991753;28;20454;-69
2021/10/17 09:15:40;;;;;;;17.27;15.90;;;24.40;82.10;;;;;;4991728;28;20442;-69
2021/10/17 09:18:12;;;;;;;17.70;16.40;;;24.30;81.60;;;;;;4994849;28;20443;-69
2021/10/17 09:20:46;;;;;;;17.83;16.33;;;24.60;79.70;;;;;;4995395;28;20434;-70
2021/10/17 09:23:26;;;;;;;16.70;15.40;;;24.80;78.20;;;;;;4995360;28;20908;-69
2021/10/17 09:25:57;;;;;;;17.77;16.37;;;25.20;76.80;;;;;;4995036;28;20430;-70
2021/10/17 09:28:28;;;;;;;17.10;15.80;;;25.80;73.90;;;;;;4994291;28;20431;-69
2021/10/17 09:31:07;;;;;;;17.57;16.20;;;25.80;72.30;;;;;;4995295;28;21065;-70
2021/10/17 09:33:34;;;;;;;17.03;15.83;;;25.50;72.10;;;;;;4995032;28;20454;-70
2021/10/17 09:36:21;;;;;;;18.87;17.20;;;25.70;72.30;;;;;;4995040;28;20441;-70
2021/10/17 09:38:50;;;;;;;17.13;15.60;;;26.00;70.00;;;;;;4995035;28;20431;-70
2021/10/17 09:41:21;;;;;;;16.90;15.60;;;26.40;68.10;;;;;;4994632;28;20529;-70
2021/10/17 09:43:55;;;;;;;17.73;16.33;;;26.70;67.40;;;;;;4993451;28;20808;-69
2021/10/17 09:46:21;;;;;;;18.97;17.50;;;26.10;66.40;;;;;;4980139;28;20529;-70
2021/10/17 09:48:47;;;;;;;19.17;17.57;;;25.80;67.40;;;;;;4994338;28;20435;-69
2021/10/17 09:51:16;;;;;;;17.33;16.13;;;26.10;67.70;;;;;;4994102;28;20525;-70
2021/10/17 09:53:51;;;;;;;18.07;16.57;;;26.80;65.40;;;;;;4994433;28;20187;-70
2021/10/17 09:56:37;;;;;;;18.40;16.90;;;27.30;63.30;;;;;;4994698;28;20474;-65
2021/10/17 09:59:04;;;;;;;18.10;16.53;;;28.00;61.80;;;;;;4994064;28;20932;-66
2021/10/17 10:01:31;;;;;;;17.53;16.23;;;28.50;59.80;;;;;;4994177;28;20525;-66
2021/10/17 10:04:00;;;;;;;17.50;16.20;;;28.40;59.40;;;;;;4994959;28;20478;-71
2021/10/17 10:06:27;;;;;;;18.17;16.67;;;28.60;58.00;;;;;;4992266;28;20445;-71
2021/10/17 10:09:02;;;;;;;21.23;19.57;;;28.20;58.10;;;;;;4993836;28;20438;-71
2021/10/17 10:11:30;;;;;;;18.03;16.67;;;28.30;57.70;;;;;;4994104;28;20453;-71
2021/10/17 10:13:59;;;;;;;18.87;17.47;;;27.60;57.90;;;;;;4993883;28;20878;-71
2021/10/17 10:16:27;;;;;;;18.97;17.47;;;28.40;57.20;;;;;;4994408;28;20465;-71
2021/10/17 10:18:57;;;;;;;17.37;16.03;;;28.30;56.90;;;;;;4993629;28;20441;-71
2021/10/17 10:21:23;;;;;;;18.73;17.23;;;28.00;56.90;;;;;;4994527;28;20478;-71
2021/10/17 10:23:51;;;;;;;17.70;16.30;;;28.50;56.50;;;;;;4994402;28;20885;-70
2021/10/17 10:26:20;;;;;;;18.40;17.00;;;28.60;55.10;;;;;;4994067;28;20580;-70
2021/10/17 10:28:46;;;;;;;19.03;17.53;;;28.20;55.70;;;;;;4992819;28;20438;-69
2021/10/17 10:31:40;;;;;;;19.73;18.23;;;28.70;55.40;;;;;;4993317;28;20525;-70
2021/10/17 10:34:09;;;;;;;18.70;17.20;;;28.90;54.90;;;;;;4993620;28;20450;-69
2021/10/17 10:36:45;;;;;;;18.43;16.83;;;29.00;54.40;;;;;;4988845;28;20473;-69
2021/10/17 10:39:13;;;;;;;18.27;16.83;;;29.80;54.10;;;;;;4993337;28;20441;-70
2021/10/17 10:41:50;;;;;;;19.40;17.80;;;30.60;52.90;;;;;;4993881;28;20427;-67
2021/10/17 10:44:20;;;;;;;17.90;16.60;;;31.10;51.70;;;;;;4993255;28;20462;-70
2021/10/17 10:46:46;;;;;;;18.23;16.70;;;31.40;51.10;;;;;;4993558;28;20784;-67
2021/10/17 10:49:38;;;;;;;18.80;17.30;;;32.40;49.80;;;;;;4990593;28;20475;-67
2021/10/17 10:52:05;;;;;;;18.23;16.87;;;33.20;48.60;;;;;;4992261;28;20469;-67
2021/10/17 10:54:32;;;;;;;19.60;18.17;;;33.10;47.70;;;;;;4993384;28;20545;-65
2021/10/17 10:56:58;;;;;;;19.27;17.87;;;31.80;47.70;;;;;;4993366;28;20434;-69
2021/10/17 10:59:48;;;;;;;18.60;17.20;;;32.30;47.40;;;;;;4993134;28;20482;-70
2021/10/17 11:02:17;;;;;;;20.63;19.13;;;32.40;47.10;;;;;;4992810;28;20184;-69
2021/10/17 11:04:44;;;;;;;19.43;17.93;;;32.80;46.70;;;;;;4993520;28;20509;-68
2021/10/17 11:07:17;;;;;;;20.47;19.00;;;32.70;46.30;;;;;;4993304;28;20443;-69
2021/10/17 11:09:43;;;;;;;19.23;17.63;;;32.70;45.70;;;;;;4993109;28;20435;-69
2021/10/17 11:12:09;;;;;;;20.57;19.07;;;31.10;47.10;;;;;;4992731;28;20494;-69
2021/10/17 11:14:35;;;;;;;20.70;19.10;;;29.70;48.50;;;;;;4993207;28;20395;-68
2021/10/17 11:17:06;;;;;;;19.47;17.90;;;28.60;49.60;;;;;;4993299;28;20517;-68
2021/10/17 11:19:33;;;;;;;21.60;19.90;;;27.50;51.30;;;;;;4978537;28;20295;-67
2021/10/17 11:22:03;;;;;;;21.10;19.40;;;28.40;51.00;;;;;;4991060;28;20573;-67
2021/10/17 11:24:29;;;;;;;20.83;19.03;;;28.10;51.40;;;;;;4979160;28;20459;-67
2021/10/17 11:27:14;;;;;;;22.27;20.47;;;28.40;51.30;;;;;;4988720;28;20434;-67
2021/10/17 11:29:44;;;;;;;20.30;18.70;;;28.60;50.90;;;;;;4988152;28;20665;-67
2021/10/17 11:32:18;;;;;;;20.27;18.67;;;28.50;51.20;;;;;;4992431;28;20477;-69
2021/10/17 11:35:05;;;;;;;19.93;18.33;;;28.10;51.70;;;;;;4981082;28;20451;-70
2021/10/17 11:37:32;;;;;;;20.30;18.80;;;27.70;51.90;;;;;;4991234;28;21062;-70
2021/10/17 11:40:04;;;;;;;20.50;18.90;;;28.20;52.00;;;;;;4990554;28;20462;-69
2021/10/17 11:42:46;;;;;;;18.60;17.10;;;28.40;51.30;;;;;;4993199;28;20445;-69
2021/10/17 11:45:26;;;;;;;21.83;20.10;;;28.80;51.00;;;;;;4993382;28;20423;-69
2021/10/17 11:47:53;;;;;;;20.57;18.97;;;28.50;50.70;;;;;;4985335;28;20530;-70
2021/10/17 11:50:20;;;;;;;19.50;18.00;;;29.00;50.60;;;;;;4992854;28;20438;-69
2021/10/17 11:52:57;;;;;;;20.50;18.87;;;29.50;50.10;;;;;;4992209;28;20462;-69
2021/10/17 11:55:41;;;;;;;21.10;19.50;;;28.90;50.20;;;;;;4992914;28;20960;-69
2021/10/17 11:58:25;;;;;;;19.60;18.00;;;29.20;50.30;;;;;;4992052;28;20435;-69
2021/10/17 12:00:53;;;;;;;18.60;17.10;;;29.10;50.60;;;;;;4992095;28;20474;-69
2021/10/17 12:03:21;;;;;;;18.57;17.07;;;28.70;50.80;;;;;;4977163;28;20986;-69
2021/10/17 12:05:47;;;;;;;19.83;18.20;;;29.60;50.40;;;;;;4992471;28;20443;-69
2021/10/17 12:08:24;;;;;;;19.27;17.77;;;29.50;49.80;;;;;;4992010;28;20482;-69
2021/10/17 12:11:06;;;;;;;19.53;17.73;;;29.00;49.90;;;;;;4992480;28;20469;-69
2021/10/17 12:13:39;;;;;;;18.37;16.87;;;28.40;51.10;;;;;;4978979;28;20505;-69
2021/10/17 12:16:11;;;;;;;19.60;17.90;;;29.90;50.00;;;;;;4991537;28;20807;-69
2021/10/17 12:18:48;;;;;;;20.00;18.30;;;31.60;48.30;;;;;;4992249;28;20446;-69
2021/10/17 12:21:18;;;;;;;18.20;16.80;;;32.50;47.10;;;;;;4992030;28;20503;-70
2021/10/17 12:23:45;;;;;;;19.27;17.70;;;33.10;46.10;;;;;;4992287;28;20457;-67
2021/10/17 12:26:25;;;;;;;18.90;17.50;;;33.20;45.70;;;;;;4991644;28;20435;-67
2021/10/17 12:29:08;;;;;;;16.53;15.23;;;31.80;46.80;;;;;;4992070;28;20477;-67
2021/10/17 12:31:35;;;;;;;19.73;18.23;;;32.30;46.60;;;;;;4991280;28;21091;-69
2021/10/17 12:34:03;;;;;;;19.67;18.07;;;33.00;45.70;;;;;;4991976;28;20549;-69